Time;durP1;ratioP1;P1;durP2;ratioP2;P2;SDS_P1;SDS_P2;PMS_P1;PMS_P2;Temp;Humidity;BMP_temperature;BMP_pressure;BME280_temperature;BME280_humidity;BME280_pressure;Samples;Min_cycle;Max_cycle;Signal;HPM_P1;HPM_P2
2021/08/22 02:45:17;;;;;;;8.55;7.03;;;18.00;98.00;;;;;;5706587;24;20941;-79
2021/08/22 02:47:43;;;;;;;12.98;7.18;;;17.90;98.00;;;;;;4816843;29;20105;-79
2021/08/22 02:50:09;;;;;;;12.48;6.15;;;18.00;98.00;;;;;;4794779;30;20164;-79
2021/08/22 02:52:35;;;;;;;9.98;7.57;;;17.90;97.80;;;;;;4812058;29;20034;-79
2021/08/22 02:55:00;;;;;;;17.13;7.75;;;18.00;97.80;;;;;;4782159;30;20027;-79
2021/08/22 02:57:26;;;;;;;12.35;7.88;;;18.00;98.10;;;;;;4812134;29;20099;-79
2021/08/22 02:59:52;;;;;;;15.93;6.82;;;17.90;98.00;;;;;;4796955;30;20035;-79
2021/08/22 03:02:18;;;;;;;13.32;8.32;;;18.00;97.80;;;;;;4800156;29;20043;-79
2021/08/22 03:04:43;;;;;;;12.38;6.85;;;17.90;97.90;;;;;;4800623;30;20323;-79
2021/08/22 03:07:09;;;;;;;10.43;6.68;;;17.90;97.70;;;;;;4785617;30;20092;-79
2021/08/22 03:09:35;;;;;;;10.68;6.63;;;17.90;97.60;;;;;;4800443;30;20327;-81
2021/08/22 03:12:00;;;;;;;8.88;6.68;;;17.90;97.60;;;;;;4816494;29;20040;-81
2021/08/22 03:14:27;;;;;;;10.75;7.10;;;17.90;97.40;;;;;;4802334;29;20035;-81
2021/08/22 03:16:53;;;;;;;12.52;6.53;;;17.90;97.40;;;;;;4825322;29;20103;-81
2021/08/22 03:19:19;;;;;;;13.27;7.28;;;17.90;97.50;;;;;;4818960;29;20038;-81
2021/08/22 03:21:45;;;;;;;10.75;7.28;;;17.90;97.50;;;;;;4819833;29;20141;-81
2021/08/22 03:24:12;;;;;;;9.95;7.22;;;17.90;97.60;;;;;;4833696;29;20042;-81
2021/08/22 03:26:39;;;;;;;11.88;8.60;;;17.90;97.90;;;;;;4818665;29;20027;-81
2021/08/22 03:29:05;;;;;;;13.75;7.97;;;17.90;97.80;;;;;;4820085;29;20052;-81
2021/08/22 03:31:30;;;;;;;12.73;7.15;;;17.90;97.90;;;;;;4803660;29;20035;-81
2021/08/22 03:33:56;;;;;;;10.25;6.72;;;17.90;98.00;;;;;;4818792;29;20038;-80
2021/08/22 03:36:22;;;;;;;10.00;6.50;;;17.80;97.80;;;;;;4803433;29;20038;-81
2021/08/22 03:38:48;;;;;;;8.50;6.65;;;17.80;97.80;;;;;;4818327;29;20038;-81
2021/08/22 03:41:14;;;;;;;14.43;7.82;;;17.90;97.80;;;;;;4803184;29;20045;-81
2021/08/22 03:43:40;;;;;;;16.23;8.88;;;17.80;98.20;;;;;;4818421;29;20065;-81
2021/08/22 03:46:05;;;;;;;13.50;7.95;;;17.80;98.40;;;;;;4814702;29;20362;-81
2021/08/22 03:48:31;;;;;;;12.55;7.68;;;17.80;98.50;;;;;;4800257;30;20027;-81
2021/08/22 03:50:57;;;;;;;12.98;7.43;;;17.80;98.30;;;;;;4815479;29;20318;-81
2021/08/22 03:53:23;;;;;;;10.10;7.63;;;17.80;98.30;;;;;;4815455;29;20275;-81
2021/08/22 03:55:49;;;;;;;12.07;7.82;;;17.80;98.30;;;;;;4800396;30;20253;-81
2021/08/22 03:58:14;;;;;;;15.55;9.27;;;17.80;98.20;;;;;;4815417;29;20063;-81
2021/08/22 04:00:40;;;;;;;9.85;7.45;;;17.80;98.80;;;;;;4785502;30;20035;-81
2021/08/22 04:03:06;;;;;;;10.95;7.60;;;17.80;99.20;;;;;;4801675;29;20039;-81
2021/08/22 04:05:51;;;;;;;13.75;8.43;;;17.80;98.70;;;;;;4801805;30;20031;-81
2021/08/22 04:08:23;;;;;;;13.85;7.72;;;17.80;98.70;;;;;;4785425;30;20097;-81
2021/08/22 04:10:49;;;;;;;8.93;7.55;;;17.80;98.60;;;;;;4800712;30;20107;-81
2021/08/22 04:13:15;;;;;;;10.90;7.43;;;17.80;98.80;;;;;;4799804;29;20043;-81
2021/08/22 04:15:41;;;;;;;8.85;7.05;;;17.90;98.70;;;;;;4800888;29;20214;-81
2021/08/22 04:18:07;;;;;;;11.98;8.15;;;17.90;98.60;;;;;;4819475;29;20038;-81
2021/08/22 04:20:33;;;;;;;14.57;8.43;;;18.00;98.60;;;;;;4818021;29;20402;-81
2021/08/22 04:22:59;;;;;;;12.07;9.73;;;18.00;98.60;;;;;;4818511;29;20027;-81
2021/08/22 04:25:24;;;;;;;11.43;7.93;;;18.10;99.10;;;;;;4818246;29;20030;-81
2021/08/22 04:27:50;;;;;;;13.52;7.60;;;18.20;98.90;;;;;;4811857;29;20029;-80
2021/08/22 04:30:16;;;;;;;10.98;7.93;;;18.20;98.80;;;;;;4836239;29;20042;-81
2021/08/22 04:32:42;;;;;;;11.43;7.68;;;18.20;98.80;;;;;;4821345;29;20109;-79
2021/08/22 04:35:08;;;;;;;17.27;8.60;;;18.30;98.70;;;;;;4820541;29;20038;-79
2021/08/22 04:37:34;;;;;;;9.43;7.85;;;18.40;99.10;;;;;;4820663;29;20259;-79
2021/08/22 04:40:00;;;;;;;24.70;10.38;;;18.40;98.90;;;;;;4835483;29;20095;-79
2021/08/22 04:42:26;;;;;;;11.73;8.52;;;18.50;98.60;;;;;;4835905;29;20058;-79
2021/08/22 04:44:51;;;;;;;13.77;8.50;;;18.60;98.60;;;;;;4835720;29;20060;-79
2021/08/22 04:47:17;;;;;;;11.68;8.80;;;18.70;98.50;;;;;;4807831;29;20057;-79
2021/08/22 04:49:43;;;;;;;16.13;8.60;;;18.80;98.60;;;;;;4817452;29;20083;-79
2021/08/22 04:52:09;;;;;;;12.45;7.88;;;18.90;98.50;;;;;;4817613;29;20030;-79
2021/08/22 04:54:34;;;;;;;12.38;7.32;;;19.00;98.10;;;;;;4818177;29;20023;-79
2021/08/22 04:57:00;;;;;;;9.82;7.75;;;19.10;98.30;;;;;;4817441;29;20035;-79
2021/08/22 04:59:26;;;;;;;11.18;8.35;;;19.20;97.80;;;;;;4802025;29;20037;-79
2021/08/22 05:01:51;;;;;;;11.60;8.00;;;19.30;97.80;;;;;;4817054;29;20346;-79
2021/08/22 05:04:17;;;;;;;14.05;8.48;;;19.40;97.80;;;;;;4817217;29;20033;-79
2021/08/22 05:06:43;;;;;;;13.45;8.30;;;19.50;97.80;;;;;;4817055;29;20031;-79
2021/08/22 05:09:09;;;;;;;11.65;8.57;;;19.60;97.80;;;;;;4816990;29;20023;-79
2021/08/22 05:11:34;;;;;;;17.73;8.15;;;19.70;97.80;;;;;;4817137;29;20041;-79
2021/08/22 05:14:01;;;;;;;10.25;7.82;;;19.80;97.70;;;;;;4816808;29;20023;-79
2021/08/22 05:16:26;;;;;;;14.55;7.10;;;19.90;97.50;;;;;;4811908;29;20027;-79
2021/08/22 05:18:52;;;;;;;9.77;7.85;;;20.00;96.90;;;;;;4798878;30;20035;-79
2021/08/22 05:21:18;;;;;;;10.07;7.88;;;20.00;96.80;;;;;;4783326;30;20291;-79
2021/08/22 05:23:44;;;;;;;14.63;8.55;;;20.20;96.80;;;;;;4783309;30;20036;-79
2021/08/22 05:26:09;;;;;;;10.90;8.20;;;20.20;96.60;;;;;;4798487;30;20031;-79
2021/08/22 05:28:35;;;;;;;15.98;7.93;;;20.30;96.50;;;;;;4783504;30;20035;-80
2021/08/22 05:31:01;;;;;;;14.68;8.65;;;20.40;96.60;;;;;;4798647;30;20042;-78
2021/08/22 05:33:27;;;;;;;13.45;8.13;;;20.50;96.40;;;;;;4798617;30;20396;-79
2021/08/22 05:35:52;;;;;;;11.45;8.63;;;20.60;96.20;;;;;;4783976;30;20031;-79
2021/08/22 05:38:18;;;;;;;13.98;9.45;;;20.60;96.00;;;;;;4813781;29;20369;-79
2021/08/22 05:40:44;;;;;;;18.30;9.80;;;20.70;96.00;;;;;;4799610;29;20027;-79
2021/08/22 05:43:10;;;;;;;18.15;9.73;;;20.60;96.10;;;;;;4798616;30;20035;-80
2021/08/22 05:45:36;;;;;;;13.30;9.07;;;20.60;96.10;;;;;;4783219;30;20395;-79
2021/08/22 05:48:01;;;;;;;13.45;9.63;;;20.60;96.10;;;;;;4797941;30;20050;-79
2021/08/22 05:50:27;;;;;;;12.85;9.48;;;20.60;96.10;;;;;;4812965;29;20031;-80
2021/08/22 05:52:53;;;;;;;14.10;9.85;;;20.70;96.20;;;;;;4813655;29;20064;-80
2021/08/22 05:55:20;;;;;;;15.13;9.43;;;20.70;96.30;;;;;;4813182;29;20421;-80
2021/08/22 05:57:46;;;;;;;18.10;10.27;;;20.70;96.30;;;;;;4812775;29;20043;-80
2021/08/22 06:00:12;;;;;;;19.23;10.90;;;20.80;96.40;;;;;;4812654;29;20042;-80
2021/08/22 06:02:38;;;;;;;16.20;10.73;;;20.90;96.20;;;;;;4798415;29;20275;-80
2021/08/22 06:05:08;;;;;;;18.52;10.35;;;20.90;96.20;;;;;;4812555;29;20027;-80
2021/08/22 06:07:34;;;;;;;13.25;10.50;;;21.00;96.10;;;;;;4797547;30;20031;-80
2021/08/22 06:10:00;;;;;;;14.60;10.80;;;21.00;96.00;;;;;;4797196;30;20031;-80
2021/08/22 06:12:27;;;;;;;14.95;11.00;;;21.10;96.10;;;;;;4812263;29;20039;-80
2021/08/22 06:14:53;;;;;;;13.35;10.30;;;21.20;95.50;;;;;;4812210;29;20276;-79
2021/08/22 06:17:18;;;;;;;19.48;10.68;;;21.20;95.40;;;;;;4815055;29;20035;-80
2021/08/22 06:19:44;;;;;;;13.52;10.73;;;21.30;95.20;;;;;;4799942;29;20056;-80
2021/08/22 06:22:10;;;;;;;18.90;10.88;;;21.40;95.10;;;;;;4815439;29;20030;-80
2021/08/22 06:24:36;;;;;;;16.50;10.50;;;21.50;94.90;;;;;;4815452;29;20023;-80
2021/08/22 06:27:02;;;;;;;14.80;9.75;;;21.60;94.70;;;;;;4800151;29;20035;-80
2021/08/22 06:29:28;;;;;;;17.30;10.35;;;21.70;94.70;;;;;;4815329;29;20027;-80
2021/08/22 06:31:54;;;;;;;18.30;10.77;;;21.80;94.00;;;;;;4800227;29;20342;-79
2021/08/22 06:34:19;;;;;;;18.17;11.68;;;22.00;93.90;;;;;;4800044;29;20034;-80
2021/08/22 06:36:46;;;;;;;15.02;9.80;;;22.10;93.50;;;;;;4817351;29;20245;-80
2021/08/22 06:39:12;;;;;;;10.73;9.30;;;22.30;93.10;;;;;;4820074;29;20159;-79
2021/08/22 06:41:38;;;;;;;16.27;9.35;;;22.40;92.90;;;;;;4803418;29;20284;-80
2021/08/22 06:44:04;;;;;;;13.63;9.55;;;22.70;92.10;;;;;;4803467;29;20087;-80
2021/08/22 06:46:30;;;;;;;17.10;9.00;;;22.90;91.70;;;;;;4818532;29;20342;-80
2021/08/22 06:48:56;;;;;;;15.65;9.15;;;23.00;90.70;;;;;;4818862;29;20083;-80
2021/08/22 06:51:22;;;;;;;18.23;10.48;;;23.00;90.30;;;;;;4818758;29;20031;-80
2021/08/22 06:53:48;;;;;;;14.23;8.30;;;22.90;90.70;;;;;;4823006;29;20031;-79
2021/08/22 06:56:13;;;;;;;12.43;8.10;;;23.00;90.70;;;;;;4808432;29;20073;-79
2021/08/22 06:58:39;;;;;;;19.27;10.98;;;23.20;90.90;;;;;;4825290;29;20047;-80
2021/08/22 07:01:06;;;;;;;15.40;9.65;;;23.30;89.60;;;;;;4823377;29;20101;-80
2021/08/22 07:03:32;;;;;;;13.05;8.50;;;23.40;89.60;;;;;;4810355;29;20030;-80
2021/08/22 07:05:59;;;;;;;14.82;8.95;;;23.40;88.90;;;;;;4823061;29;20031;-80
2021/08/22 07:08:25;;;;;;;15.27;8.23;;;23.60;89.20;;;;;;4812436;29;20030;-80
2021/08/22 07:10:51;;;;;;;14.88;8.73;;;23.70;89.00;;;;;;4808549;29;20042;-79
2021/08/22 07:13:17;;;;;;;15.13;8.13;;;23.80;87.20;;;;;;4801710;29;20030;-80
2021/08/22 07:15:43;;;;;;;14.15;7.20;;;24.00;87.00;;;;;;4816002;29;20026;-80
2021/08/22 07:18:08;;;;;;;8.57;6.85;;;24.10;85.90;;;;;;4820967;29;20030;-80
2021/08/22 07:20:34;;;;;;;10.85;7.00;;;24.20;83.40;;;;;;4818053;29;20033;-80
2021/08/22 07:23:02;;;;;;;15.15;6.85;;;24.20;80.80;;;;;;4810748;29;20059;-81
2021/08/22 07:25:28;;;;;;;9.68;5.80;;;24.30;83.40;;;;;;4822755;29;20062;-81
2021/08/22 07:27:53;;;;;;;11.57;6.90;;;24.40;81.10;;;;;;4808136;29;20322;-81
2021/08/22 07:30:20;;;;;;;10.50;7.05;;;24.50;80.50;;;;;;4814955;29;20035;-81
2021/08/22 07:32:45;;;;;;;7.97;6.80;;;24.60;80.30;;;;;;4814851;29;20069;-81
2021/08/22 07:35:11;;;;;;;11.63;7.78;;;24.70;78.80;;;;;;4814740;29;20281;-81
2021/08/22 07:37:37;;;;;;;10.95;6.68;;;24.70;79.00;;;;;;4814898;29;20195;-82
2021/08/22 07:40:06;;;;;;;10.55;6.22;;;24.70;79.20;;;;;;4814520;29;20054;-82
2021/08/22 07:42:35;;;;;;;9.45;6.78;;;24.90;78.60;;;;;;4784302;30;20039;-82
2021/08/22 07:45:02;;;;;;;;;;;25.00;78.40;;;;;;4818190;29;20380;-82
2021/08/22 07:47:28;;;;;;;11.98;6.45;;;25.00;77.40;;;;;;4801218;29;20116;-82
2021/08/22 07:49:54;;;;;;;10.30;7.05;;;25.00;77.10;;;;;;4802490;29;20039;-82
2021/08/22 07:52:22;;;;;;;10.40;6.70;;;25.00;76.30;;;;;;4814618;29;20027;-81
2021/08/22 07:54:49;;;;;;;11.70;7.25;;;25.10;77.90;;;;;;4811495;29;20054;-83
2021/08/22 07:57:17;;;;;;;11.00;7.38;;;25.20;75.90;;;;;;4796954;29;20027;-83
2021/08/22 07:59:43;;;;;;;8.93;6.57;;;25.20;77.00;;;;;;4813530;29;20043;-83
2021/08/22 08:02:09;;;;;;;10.70;7.28;;;25.30;76.90;;;;;;4814337;29;20031;-83
2021/08/22 08:04:35;;;;;;;11.60;7.85;;;25.40;78.00;;;;;;4814089;29;20038;-83
2021/08/22 08:07:01;;;;;;;8.93;6.88;;;25.50;77.20;;;;;;4816385;29;20072;-82
2021/08/22 08:09:27;;;;;;;11.65;7.07;;;25.70;75.80;;;;;;4801582;29;20039;-83
2021/08/22 08:11:52;;;;;;;12.40;6.70;;;25.70;75.70;;;;;;4801610;29;20278;-83
2021/08/22 08:14:18;;;;;;;11.27;7.30;;;25.80;75.00;;;;;;4801526;29;20069;-83
2021/08/22 08:16:45;;;;;;;10.05;6.40;;;25.80;75.50;;;;;;4801886;29;20067;-83
2021/08/22 08:19:10;;;;;;;10.13;6.35;;;26.00;75.50;;;;;;4801701;29;20334;-82
2021/08/22 08:21:36;;;;;;;10.48;7.40;;;26.10;75.50;;;;;;4816944;29;20035;-83
2021/08/22 08:24:02;;;;;;;8.40;5.93;;;26.30;73.90;;;;;;4816700;29;20034;-82
2021/08/22 08:26:28;;;;;;;10.40;6.13;;;26.40;73.50;;;;;;4801303;29;20026;-82
2021/08/22 08:28:54;;;;;;;6.93;5.53;;;26.50;73.50;;;;;;4801106;29;20033;-83
2021/08/22 08:31:19;;;;;;;9.20;6.20;;;26.80;72.20;;;;;;4816454;29;20034;-82
2021/08/22 08:33:45;;;;;;;11.75;5.95;;;26.70;69.40;;;;;;4816716;29;20349;-80
2021/08/22 08:36:11;;;;;;;10.90;6.55;;;26.60;72.10;;;;;;4816822;29;20346;-79
2021/08/22 08:38:37;;;;;;;10.65;6.10;;;26.80;70.60;;;;;;4816649;29;20106;-80
2021/08/22 08:41:03;;;;;;;8.43;5.65;;;26.80;70.40;;;;;;4817156;29;20050;-81
2021/08/22 08:43:29;;;;;;;9.30;5.93;;;26.70;69.50;;;;;;4816932;29;20065;-80
2021/08/22 08:46:07;;;;;;;10.50;5.93;;;26.70;68.00;;;;;;4814476;29;20055;-81
2021/08/22 08:48:55;;;;;;;8.18;5.95;;;26.70;69.90;;;;;;4783812;30;20076;-82
2021/08/22 08:51:41;;;;;;;7.97;5.53;;;26.80;69.20;;;;;;4801438;29;20042;-82
2021/08/22 08:54:29;;;;;;;9.63;5.03;;;27.00;68.10;;;;;;4804068;29;20038;-81
2021/08/22 08:56:57;;;;;;;10.73;5.93;;;27.20;68.20;;;;;;4816666;29;20038;-81
2021/08/22 08:59:23;;;;;;;9.25;6.00;;;27.20;66.80;;;;;;4800993;29;20070;-81
2021/08/22 09:01:52;;;;;;;20.30;6.15;;;27.50;67.30;;;;;;4815967;29;20104;-81
2021/08/22 09:04:26;;;;;;;10.15;5.20;;;27.70;66.50;;;;;;4801643;29;20051;-81
2021/08/22 09:07:20;;;;;;;8.93;5.45;;;27.70;67.00;;;;;;4816271;29;20292;-81
2021/08/22 09:10:17;;;;;;;11.85;5.78;;;27.90;66.60;;;;;;4816166;29;20039;-80
2021/08/22 09:13:21;;;;;;;14.02;7.30;;;28.20;65.80;;;;;;4815757;29;20088;-80
2021/08/22 09:16:02;;;;;;;10.60;5.55;;;28.30;66.20;;;;;;4799332;29;20035;-80
2021/08/22 09:18:50;;;;;;;10.73;5.32;;;28.40;63.90;;;;;;4797649;30;20046;-80
2021/08/22 09:21:37;;;;;;;6.85;5.28;;;28.60;62.00;;;;;;4783651;30;20342;-80
2021/08/22 09:24:19;;;;;;;7.95;5.78;;;28.50;63.00;;;;;;4785373;30;20102;-80
2021/08/22 09:27:29;;;;;;;11.63;5.70;;;28.50;65.10;;;;;;4800562;29;20034;-80
2021/08/22 09:30:32;;;;;;;7.80;5.43;;;28.50;63.40;;;;;;4835512;29;20057;-80
2021/08/22 09:33:35;;;;;;;11.10;5.93;;;28.60;62.80;;;;;;4833732;29;20038;-80
2021/08/22 09:36:25;;;;;;;9.48;5.72;;;28.70;61.40;;;;;;4835214;29;20337;-83
2021/08/22 09:39:28;;;;;;;8.13;5.50;;;29.00;61.80;;;;;;4819265;29;20057;-81
2021/08/22 09:42:22;;;;;;;8.05;5.68;;;29.10;61.80;;;;;;4818631;29;20111;-81
2021/08/22 09:45:25;;;;;;;7.43;5.25;;;29.10;61.20;;;;;;4789226;29;20340;-80
2021/08/22 09:48:22;;;;;;;9.52;6.32;;;29.30;61.90;;;;;;4813871;29;20062;-81
2021/08/22 09:51:38;;;;;;;11.60;6.38;;;29.20;61.90;;;;;;4815589;29;20038;-80
2021/08/22 09:54:28;;;;;;;8.35;6.25;;;29.40;58.70;;;;;;4747125;30;20048;-81
2021/08/22 09:57:31;;;;;;;10.95;6.20;;;29.70;61.10;;;;;;4761476;30;20039;-82
2021/08/22 10:00:43;;;;;;;9.25;6.18;;;29.90;58.70;;;;;;4746401;30;20340;-83
2021/08/22 10:03:28;;;;;;;8.48;6.53;;;29.90;59.30;;;;;;4673953;30;20049;-82
2021/08/22 10:06:32;;;;;;;11.95;6.70;;;29.80;58.80;;;;;;4674339;30;20035;-83
2021/08/22 10:09:03;;;;;;;10.00;7.22;;;29.70;58.90;;;;;;4623324;31;20094;-83
2021/08/22 10:11:37;;;;;;;7.45;6.00;;;29.70;58.50;;;;;;4622384;31;20056;-83
2021/08/22 10:14:08;;;;;;;8.13;5.95;;;29.80;59.30;;;;;;4617993;31;20044;-83
2021/08/22 10:16:34;;;;;;;9.20;6.18;;;29.90;57.60;;;;;;4589163;31;20044;-81
2021/08/22 10:19:07;;;;;;;13.47;6.57;;;29.80;59.10;;;;;;4617261;31;20229;-82
2021/08/22 10:21:33;;;;;;;9.30;6.45;;;30.00;58.70;;;;;;4592903;31;20266;-82
2021/08/22 10:24:11;;;;;;;7.90;6.28;;;30.30;59.90;;;;;;4601687;31;20073;-83
2021/08/22 10:26:48;;;;;;;8.32;6.55;;;30.50;60.00;;;;;;4590033;31;20091;-81
2021/08/22 10:29:24;;;;;;;9.68;6.30;;;30.90;58.10;;;;;;4590564;31;20036;-80
2021/08/22 10:31:50;;;;;;;12.85;7.05;;;31.10;57.90;;;;;;4655994;30;20035;-81
2021/08/22 10:34:16;;;;;;;12.77;5.67;;;31.00;56.00;;;;;;4671519;30;20023;-81
2021/08/22 10:36:43;;;;;;;11.33;6.83;;;31.10;58.20;;;;;;4702315;30;20112;-80
2021/08/22 10:39:25;;;;;;;9.52;6.25;;;31.20;56.70;;;;;;4727579;30;20223;-80
2021/08/22 10:41:59;;;;;;;8.40;5.70;;;31.30;56.20;;;;;;4728079;30;20239;-79
2021/08/22 10:44:34;;;;;;;10.23;6.13;;;31.40;57.50;;;;;;4733200;30;20356;-79
2021/08/22 10:47:00;;;;;;;10.02;6.05;;;31.50;56.90;;;;;;4818475;29;20051;-79
2021/08/22 10:49:54;;;;;;;10.88;6.18;;;31.60;55.50;;;;;;4811784;29;20039;-80
2021/08/22 10:52:34;;;;;;;10.07;6.13;;;31.70;55.90;;;;;;4796438;30;20069;-80
2021/08/22 10:55:14;;;;;;;8.48;5.82;;;31.60;55.90;;;;;;4797799;29;20059;-79
2021/08/22 10:57:49;;;;;;;11.20;5.10;;;31.60;57.30;;;;;;4797711;29;20062;-82
2021/08/22 11:00:27;;;;;;;11.35;4.68;;;31.70;56.60;;;;;;4814248;29;20034;-80
2021/08/22 11:02:55;;;;;;;8.30;5.30;;;31.90;54.30;;;;;;4799364;29;20053;-80
2021/08/22 11:05:26;;;;;;;10.32;5.38;;;31.90;55.30;;;;;;4797656;29;20031;-80
2021/08/22 11:07:54;;;;;;;6.68;5.18;;;32.10;54.70;;;;;;4806964;29;20035;-81
2021/08/22 11:10:24;;;;;;;8.63;5.30;;;32.40;56.10;;;;;;4796002;30;20039;-80
2021/08/22 11:12:54;;;;;;;9.15;5.13;;;32.60;54.80;;;;;;4785767;29;20050;-81
2021/08/22 11:15:26;;;;;;;7.03;4.90;;;32.60;54.20;;;;;;4799419;29;20164;-80
2021/08/22 11:17:57;;;;;;;7.95;4.55;;;32.60;53.10;;;;;;4799108;29;20046;-80
2021/08/22 11:20:29;;;;;;;10.23;4.47;;;32.70;54.20;;;;;;4814297;29;20038;-80
2021/08/22 11:23:21;;;;;;;7.13;4.97;;;32.70;53.40;;;;;;4816941;29;20119;-80
2021/08/22 11:25:51;;;;;;;10.50;4.97;;;32.40;53.90;;;;;;4763707;30;20363;-81
2021/08/22 11:28:18;;;;;;;5.05;4.53;;;32.40;54.50;;;;;;4748410;30;20115;-80
2021/08/22 11:30:45;;;;;;;7.70;4.90;;;32.50;54.40;;;;;;4763244;30;20040;-80
2021/08/22 11:33:12;;;;;;;5.82;4.72;;;32.60;53.10;;;;;;4748162;30;20137;-81
2021/08/22 11:35:44;;;;;;;6.93;4.78;;;32.70;55.30;;;;;;4733811;30;20086;-81
2021/08/22 11:38:13;;;;;;;6.03;4.28;;;32.60;53.20;;;;;;4733360;30;20032;-80
2021/08/22 11:40:39;;;;;;;8.93;4.47;;;32.40;54.40;;;;;;4733296;30;20149;-80
2021/08/22 11:43:07;;;;;;;13.18;7.60;;;32.40;54.70;;;;;;4748033;30;20154;-80
2021/08/22 11:45:36;;;;;;;7.18;5.78;;;32.60;56.40;;;;;;4733096;30;20044;-81
2021/08/22 11:48:04;;;;;;;9.15;5.40;;;32.30;55.60;;;;;;4762827;30;20126;-81
2021/08/22 11:50:36;;;;;;;10.27;6.38;;;32.00;56.80;;;;;;4762694;30;20082;-81
2021/08/22 11:53:05;;;;;;;8.65;5.15;;;31.80;57.70;;;;;;4748019;30;20120;-79
2021/08/22 11:55:33;;;;;;;7.55;5.85;;;31.70;57.80;;;;;;4747705;30;20048;-79
2021/08/22 11:58:17;;;;;;;8.55;6.38;;;31.70;58.10;;;;;;4747547;30;20056;-80
2021/08/22 12:00:50;;;;;;;7.03;5.90;;;31.70;57.60;;;;;;4747980;30;20115;-80
2021/08/22 12:03:22;;;;;;;9.82;4.95;;;31.50;58.30;;;;;;4800469;29;20039;-80
2021/08/22 12:05:52;;;;;;;7.90;4.70;;;31.50;59.40;;;;;;4799460;30;20315;-80
2021/08/22 12:08:17;;;;;;;6.90;5.25;;;31.50;59.30;;;;;;4799036;30;20042;-80
2021/08/22 12:10:44;;;;;;;9.90;5.27;;;31.60;58.40;;;;;;4798965;30;20114;-80
2021/08/22 12:13:15;;;;;;;9.00;4.72;;;31.80;59.00;;;;;;4784162;30;20285;-80
2021/08/22 12:15:41;;;;;;;7.45;5.35;;;31.70;56.40;;;;;;4831943;29;20376;-80
2021/08/22 12:18:22;;;;;;;9.13;6.57;;;31.60;57.40;;;;;;4799714;30;20053;-80
2021/08/22 12:20:54;;;;;;;10.32;5.18;;;31.60;57.30;;;;;;4798962;30;20046;-80
2021/08/22 12:23:34;;;;;;;8.55;5.35;;;31.50;58.10;;;;;;4799056;30;20175;-80
2021/08/22 12:26:24;;;;;;;8.07;5.03;;;31.20;58.20;;;;;;4813887;29;20031;-80
2021/08/22 12:28:54;;;;;;;6.78;4.97;;;31.20;58.20;;;;;;4798885;30;20106;-80
2021/08/22 12:31:29;;;;;;;9.35;5.65;;;30.90;57.60;;;;;;4799931;30;20036;-80
2021/08/22 12:33:54;;;;;;;8.40;6.00;;;30.70;58.00;;;;;;4800011;29;20238;-79
2021/08/22 12:36:37;;;;;;;9.37;6.90;;;30.50;57.30;;;;;;4814860;29;20071;-80
2021/08/22 12:39:09;;;;;;;8.07;4.80;;;30.50;58.80;;;;;;4817214;29;20035;-80
2021/08/22 12:41:47;;;;;;;6.18;4.88;;;30.70;59.90;;;;;;4817584;29;20042;-80
2021/08/22 12:44:25;;;;;;;6.88;4.90;;;31.00;59.70;;;;;;4802524;29;20035;-80
2021/08/22 12:47:00;;;;;;;7.32;5.10;;;31.00;58.30;;;;;;4817387;29;20055;-80
2021/08/22 12:49:27;;;;;;;10.18;5.63;;;31.20;58.50;;;;;;4817012;29;20365;-80
2021/08/22 12:51:57;;;;;;;;;;;31.40;59.10;;;;;;4817788;29;20034;-80
2021/08/22 12:54:25;;;;;;;7.07;5.05;;;31.50;60.30;;;;;;4816840;29;19920;-79
2021/08/22 12:56:51;;;;;;;5.80;4.68;;;31.70;57.90;;;;;;4817511;29;20042;-80
2021/08/22 12:59:18;;;;;;;6.03;4.57;;;31.40;56.30;;;;;;4802478;29;20204;-80
2021/08/22 13:01:44;;;;;;;7.32;4.47;;;31.10;57.20;;;;;;4818181;29;20030;-80
2021/08/22 13:04:12;;;;;;;5.25;4.57;;;31.10;57.20;;;;;;4802348;29;20046;-79
2021/08/22 13:06:38;;;;;;;9.25;4.60;;;31.20;56.70;;;;;;4818060;29;20035;-80
2021/08/22 13:09:04;;;;;;;5.13;4.57;;;31.30;55.70;;;;;;4817012;29;20037;-80
2021/08/22 13:11:30;;;;;;;8.23;5.47;;;31.00;55.70;;;;;;4802458;29;20367;-79
2021/08/22 13:13:56;;;;;;;6.90;5.07;;;31.00;56.90;;;;;;4817339;29;20038;-79
2021/08/22 13:16:25;;;;;;;9.65;6.95;;;31.10;55.90;;;;;;4796298;30;20050;-79
2021/08/22 13:18:52;;;;;;;5.80;4.35;;;31.20;56.40;;;;;;4798723;30;20038;-80
2021/08/22 13:21:18;;;;;;;9.35;5.20;;;31.30;56.20;;;;;;4798165;30;20046;-79
2021/08/22 13:23:44;;;;;;;9.00;5.00;;;31.30;56.20;;;;;;4798209;30;20027;-80
2021/08/22 13:26:11;;;;;;;6.37;4.40;;;31.30;55.40;;;;;;4798238;30;20107;-80
2021/08/22 13:28:38;;;;;;;7.18;5.00;;;31.40;57.20;;;;;;4798235;30;20285;-79
2021/08/22 13:31:05;;;;;;;12.05;8.40;;;31.60;56.70;;;;;;4798083;30;20054;-79
2021/08/22 13:33:31;;;;;;;8.85;5.53;;;31.60;55.80;;;;;;4783243;30;20050;-79
2021/08/22 13:35:57;;;;;;;9.67;4.93;;;31.60;55.60;;;;;;4783141;30;20290;-80
2021/08/22 13:38:23;;;;;;;12.57;4.83;;;31.60;55.70;;;;;;4799662;29;20031;-79
2021/08/22 13:40:49;;;;;;;7.23;4.97;;;31.30;55.40;;;;;;4799676;30;20296;-81
2021/08/22 13:43:15;;;;;;;9.87;5.20;;;31.30;56.00;;;;;;4798496;30;20039;-82
2021/08/22 13:45:41;;;;;;;9.02;4.88;;;31.30;56.00;;;;;;4801043;29;20059;-77
2021/08/22 13:48:07;;;;;;;7.30;5.03;;;31.30;55.90;;;;;;4817194;29;20259;-77
2021/08/22 13:50:34;;;;;;;5.72;4.70;;;31.30;55.50;;;;;;4816041;29;20041;-78
2021/08/22 13:53:01;;;;;;;6.70;4.85;;;31.20;56.20;;;;;;4817421;29;20042;-79
2021/08/22 13:55:27;;;;;;;;;;;31.10;56.10;;;;;;4816590;29;20053;-78
2021/08/22 13:57:52;;;;;;;5.57;4.63;;;31.10;56.80;;;;;;4816100;29;19944;-80
2021/08/22 14:00:18;;;;;;;13.17;5.23;;;31.20;56.20;;;;;;4815871;29;20042;-80
2021/08/22 14:02:44;;;;;;;7.27;5.00;;;31.20;55.70;;;;;;4815458;29;20065;-80
2021/08/22 14:05:11;;;;;;;5.07;4.57;;;31.00;55.60;;;;;;4830719;29;20081;-80
2021/08/22 14:07:37;;;;;;;5.72;4.70;;;30.80;55.10;;;;;;4800161;29;20268;-79
2021/08/22 14:10:04;;;;;;;11.20;5.93;;;30.70;55.70;;;;;;4816539;29;20042;-80
2021/08/22 14:12:30;;;;;;;9.68;4.90;;;30.60;57.10;;;;;;4807363;29;20079;-79
2021/08/22 14:14:56;;;;;;;7.63;5.80;;;30.70;56.70;;;;;;4833915;29;20333;-79
2021/08/22 14:17:22;;;;;;;8.13;4.85;;;30.70;57.40;;;;;;4805445;29;20045;-79
2021/08/22 14:19:50;;;;;;;6.87;5.10;;;30.80;57.60;;;;;;4800602;29;20031;-79
2021/08/22 14:22:19;;;;;;;5.00;4.22;;;30.80;55.40;;;;;;4830231;29;20031;-80
2021/08/22 14:24:45;;;;;;;6.70;4.80;;;30.70;55.70;;;;;;4815283;29;20281;-79
2021/08/22 14:27:11;;;;;;;5.77;4.30;;;30.70;56.80;;;;;;4814911;29;20022;-79
2021/08/22 14:29:37;;;;;;;6.27;4.90;;;30.80;55.80;;;;;;4815236;29;20034;-80
2021/08/22 14:32:04;;;;;;;4.93;4.10;;;30.80;55.90;;;;;;4799782;29;20034;-79
2021/08/22 14:34:30;;;;;;;6.22;4.63;;;30.80;56.40;;;;;;4799937;29;20330;-79
2021/08/22 14:36:56;;;;;;;7.57;4.60;;;30.70;56.20;;;;;;4815160;29;20098;-79
2021/08/22 14:39:22;;;;;;;12.53;5.03;;;30.60;56.20;;;;;;4815676;29;20291;-79
2021/08/22 14:41:48;;;;;;;7.20;5.03;;;30.60;57.10;;;;;;4813859;29;20289;-80
2021/08/22 14:44:13;;;;;;;5.47;4.68;;;30.60;57.10;;;;;;4815001;29;20030;-79
2021/08/22 14:46:39;;;;;;;6.57;5.23;;;30.60;57.00;;;;;;4806715;29;20104;-81
2021/08/22 14:49:05;;;;;;;6.27;4.40;;;30.50;57.50;;;;;;4797255;30;20066;-80
2021/08/22 14:51:34;;;;;;;7.53;4.47;;;30.50;57.60;;;;;;4796752;30;20392;-80
2021/08/22 14:54:01;;;;;;;10.27;5.00;;;30.50;57.10;;;;;;4781715;30;20070;-79
2021/08/22 14:56:27;;;;;;;7.68;4.95;;;30.50;57.40;;;;;;4812842;29;20043;-79
2021/08/22 14:58:53;;;;;;;7.50;5.45;;;30.50;57.80;;;;;;4815455;29;20035;-80
2021/08/22 15:01:19;;;;;;;8.93;5.03;;;30.40;57.20;;;;;;4785703;30;20183;-78
2021/08/22 15:03:45;;;;;;;7.80;5.33;;;30.40;58.10;;;;;;4801542;29;20043;-80
2021/08/22 15:06:11;;;;;;;6.83;5.27;;;30.30;57.10;;;;;;4800466;30;20044;-80
2021/08/22 15:08:37;;;;;;;6.73;5.50;;;30.20;58.40;;;;;;4784882;30;20041;-80
2021/08/22 15:11:04;;;;;;;8.07;5.20;;;30.10;58.40;;;;;;4785030;30;20080;-80
2021/08/22 15:13:30;;;;;;;9.15;4.90;;;30.10;59.40;;;;;;4800187;30;20099;-79
2021/08/22 15:15:57;;;;;;;11.90;5.97;;;30.10;58.70;;;;;;4784943;30;20126;-79
2021/08/22 15:18:22;;;;;;;7.00;5.30;;;29.80;57.90;;;;;;4785268;30;20342;-79
2021/08/22 15:20:48;;;;;;;9.53;5.83;;;29.80;59.40;;;;;;4794401;29;20062;-79
2021/08/22 15:23:14;;;;;;;7.30;5.23;;;29.80;59.10;;;;;;4815888;29;20441;-79
2021/08/22 15:25:40;;;;;;;7.63;6.20;;;29.80;60.20;;;;;;4817990;29;20030;-79
2021/08/22 15:28:06;;;;;;;6.47;5.50;;;29.80;60.10;;;;;;4818395;29;20023;-79
2021/08/22 15:30:37;;;;;;;13.27;5.57;;;29.60;59.00;;;;;;4818156;29;20046;-79
2021/08/22 15:33:05;;;;;;;10.48;6.47;;;29.60;59.70;;;;;;4817889;29;20091;-79
2021/08/22 15:35:32;;;;;;;6.88;5.05;;;29.50;59.60;;;;;;4818029;29;20039;-78
2021/08/22 15:37:58;;;;;;;6.55;5.53;;;29.40;59.50;;;;;;4802766;29;20110;-80